sensor_id;sensor_type;location;lat;lon;timestamp;pressure;altitude;pressure_sealevel;temperature;humidity
1832;BME280;1680;48.106;11.708;2023-02-21T00:02:39;95983.72;;;5.49;86.10
1832;BME280;1680;48.106;11.708;2023-02-21T00:05:25;95989.03;;;5.41;86.33
1832;BME280;1680;48.106;11.708;2023-02-21T00:08:10;95985.59;;;5.40;86.16
1832;BME280;1680;48.106;11.708;2023-02-21T00:10:55;95980.22;;;5.42;86.20
1832;BME280;1680;48.106;11.708;2023-02-21T00:13:40;95981.69;;;5.30;87.55
1832;BME280;1680;48.106;11.708;2023-02-21T00:16:25;95978.69;;;5.33;87.36
1832;BME280;1680;48.106;11.708;2023-02-21T00:19:10;95986.41;;;5.26;87.46
1832;BME280;1680;48.106;11.708;2023-02-21T00:21:56;95981.09;;;5.20;87.79
1832;BME280;1680;48.106;11.708;2023-02-21T00:24:41;95981.84;;;5.14;88.29
1832;BME280;1680;48.106;11.708;2023-02-21T00:27:26;95976.16;;;5.10;87.71
1832;BME280;1680;48.106;11.708;2023-02-21T00:30:13;95977.34;;;5.08;87.94
1832;BME280;1680;48.106;11.708;2023-02-21T00:32:58;95975.28;;;5.03;87.89
1832;BME280;1680;48.106;11.708;2023-02-21T00:35:43;95972.13;;;4.93;88.55
1832;BME280;1680;48.106;11.708;2023-02-21T00:38:29;95976.16;;;4.96;88.81
1832;BME280;1680;48.106;11.708;2023-02-21T00:41:14;95977.50;;;4.92;89.15
1832;BME280;1680;48.106;11.708;2023-02-21T00:43:59;95981.06;;;4.91;87.88
1832;BME280;1680;48.106;11.708;2023-02-21T00:46:44;95983.03;;;4.89;88.83
1832;BME280;1680;48.106;11.708;2023-02-21T00:49:29;95972.63;;;4.75;89.53
1832;BME280;1680;48.106;11.708;2023-02-21T00:52:14;95910.63;;;4.35;89.37
1832;BME280;1680;48.106;11.708;2023-02-21T00:55:00;95976.03;;;4.75;88.84
1832;BME280;1680;48.106;11.708;2023-02-21T00:57:45;95968.31;;;4.67;90.13
1832;BME280;1680;48.106;11.708;2023-02-21T01:00:30;95957.88;;;4.53;90.45
1832;BME280;1680;48.106;11.708;2023-02-21T01:03:15;95961.22;;;4.61;90.55
1832;BME280;1680;48.106;11.708;2023-02-21T01:06:00;95968.44;;;4.51;90.90
1832;BME280;1680;48.106;11.708;2023-02-21T01:08:46;95947.13;;;4.41;90.41
1832;BME280;1680;48.106;11.708;2023-02-21T01:11:32;95958.41;;;4.48;90.93
1832;BME280;1680;48.106;11.708;2023-02-21T01:14:17;95965.41;;;4.48;90.46
1832;BME280;1680;48.106;11.708;2023-02-21T01:17:02;95954.28;;;4.39;90.70
1832;BME280;1680;48.106;11.708;2023-02-21T01:19:46;95956.50;;;4.42;91.04
1832;BME280;1680;48.106;11.708;2023-02-21T01:22:31;95952.00;;;4.36;90.99
1832;BME280;1680;48.106;11.708;2023-02-21T01:25:16;95949.41;;;4.36;91.46
1832;BME280;1680;48.106;11.708;2023-02-21T01:28:03;95945.63;;;4.24;91.36
1832;BME280;1680;48.106;11.708;2023-02-21T01:30:48;95936.38;;;4.22;91.37
1832;BME280;1680;48.106;11.708;2023-02-21T01:33:37;95894.41;;;3.96;92.10
1832;BME280;1680;48.106;11.708;2023-02-21T01:36:23;95949.44;;;4.14;92.07
1832;BME280;1680;48.106;11.708;2023-02-21T01:39:09;95939.72;;;4.30;91.11
1832;BME280;1680;48.106;11.708;2023-02-21T01:41:54;95935.91;;;4.18;92.09
1832;BME280;1680;48.106;11.708;2023-02-21T01:44:43;95937.63;;;4.11;91.57
1832;BME280;1680;48.106;11.708;2023-02-21T01:47:29;95926.22;;;4.12;91.76
1832;BME280;1680;48.106;11.708;2023-02-21T01:50:18;95918.50;;;4.04;92.40
1832;BME280;1680;48.106;11.708;2023-02-21T01:53:07;95926.38;;;3.96;91.76
1832;BME280;1680;48.106;11.708;2023-02-21T01:55:55;95926.19;;;3.98;92.26
1832;BME280;1680;48.106;11.708;2023-02-21T01:58:40;95926.69;;;3.93;92.56
1832;BME280;1680;48.106;11.708;2023-02-21T02:01:34;95923.06;;;4.02;92.31
1832;BME280;1680;48.106;11.708;2023-02-21T02:04:22;95917.56;;;3.97;92.10
1832;BME280;1680;48.106;11.708;2023-02-21T02:07:07;95917.47;;;3.91;92.17
1832;BME280;1680;48.106;11.708;2023-02-21T02:09:52;95906.28;;;3.90;92.31
1832;BME280;1680;48.106;11.708;2023-02-21T02:13:17;95907.94;;;3.83;92.83
1832;BME280;1680;48.106;11.708;2023-02-21T02:15:54;95917.13;;;3.94;92.89
1832;BME280;1680;48.106;11.708;2023-02-21T02:18:53;95906.84;;;3.78;93.43
1832;BME280;1680;48.106;11.708;2023-02-21T02:22:07;95905.22;;;3.77;93.93
1832;BME280;1680;48.106;11.708;2023-02-21T02:25:01;95909.78;;;3.75;93.47
1832;BME280;1680;48.106;11.708;2023-02-21T02:27:42;95908.09;;;3.60;93.87
1832;BME280;1680;48.106;11.708;2023-02-21T02:30:28;95904.66;;;3.67;93.99
1832;BME280;1680;48.106;11.708;2023-02-21T02:33:25;95895.78;;;3.62;93.73
1832;BME280;1680;48.106;11.708;2023-02-21T02:36:01;95900.03;;;3.55;95.00
1832;BME280;1680;48.106;11.708;2023-02-21T02:38:36;95893.53;;;3.59;94.81
1832;BME280;1680;48.106;11.708;2023-02-21T02:41:23;95897.28;;;3.56;95.29
1832;BME280;1680;48.106;11.708;2023-02-21T02:43:57;95909.41;;;3.56;94.65
1832;BME280;1680;48.106;11.708;2023-02-21T02:46:29;95901.28;;;3.67;94.79
1832;BME280;1680;48.106;11.708;2023-02-21T02:48:59;95893.81;;;3.64;94.70
1832;BME280;1680;48.106;11.708;2023-02-21T02:51:31;95888.63;;;3.64;94.91
1832;BME280;1680;48.106;11.708;2023-02-21T02:54:00;95885.75;;;3.59;94.74
1832;BME280;1680;48.106;11.708;2023-02-21T02:56:27;95888.72;;;3.48;94.41
1832;BME280;1680;48.106;11.708;2023-02-21T02:58:57;95885.50;;;3.46;95.42
1832;BME280;1680;48.106;11.708;2023-02-21T03:01:51;95889.06;;;3.45;95.75
1832;BME280;1680;48.106;11.708;2023-02-21T03:04:33;95883.25;;;3.43;96.00
1832;BME280;1680;48.106;11.708;2023-02-21T03:07:15;95884.53;;;3.39;94.81
1832;BME280;1680;48.106;11.708;2023-02-21T03:09:48;95882.56;;;3.49;95.39
1832;BME280;1680;48.106;11.708;2023-02-21T03:12:21;95880.66;;;3.43;95.49
1832;BME280;1680;48.106;11.708;2023-02-21T03:14:57;95856.47;;;3.20;96.06
1832;BME280;1680;48.106;11.708;2023-02-21T03:17:28;95889.72;;;3.39;95.95
1832;BME280;1680;48.106;11.708;2023-02-21T03:19:59;95890.75;;;3.30;95.72
1832;BME280;1680;48.106;11.708;2023-02-21T03:22:31;95889.28;;;3.35;96.09
1832;BME280;1680;48.106;11.708;2023-02-21T03:25:00;95893.34;;;3.30;96.11
1832;BME280;1680;48.106;11.708;2023-02-21T03:27:29;95890.44;;;3.33;96.73
1832;BME280;1680;48.106;11.708;2023-02-21T03:29:58;95891.06;;;3.35;96.62
1832;BME280;1680;48.106;11.708;2023-02-21T03:32:29;95885.56;;;3.30;96.81
1832;BME280;1680;48.106;11.708;2023-02-21T03:34:57;95894.66;;;3.26;96.60
1832;BME280;1680;48.106;11.708;2023-02-21T03:37:31;95895.22;;;3.44;95.86
1832;BME280;1680;48.106;11.708;2023-02-21T03:39:59;95884.59;;;3.31;95.43
1832;BME280;1680;48.106;11.708;2023-02-21T03:42:27;95888.22;;;3.22;95.88
1832;BME280;1680;48.106;11.708;2023-02-21T03:44:54;95892.25;;;3.16;96.42
1832;BME280;1680;48.106;11.708;2023-02-21T03:47:22;95883.53;;;3.17;95.95
1832;BME280;1680;48.106;11.708;2023-02-21T03:49:49;95884.34;;;3.10;96.96
1832;BME280;1680;48.106;11.708;2023-02-21T03:52:16;95887.91;;;3.09;97.51
1832;BME280;1680;48.106;11.708;2023-02-21T03:54:45;95888.88;;;3.16;97.66
1832;BME280;1680;48.106;11.708;2023-02-21T03:57:13;95894.72;;;3.10;98.40
1832;BME280;1680;48.106;11.708;2023-02-21T03:59:40;95893.47;;;3.06;97.93
1832;BME280;1680;48.106;11.708;2023-02-21T04:02:07;95889.59;;;3.02;97.37
1832;BME280;1680;48.106;11.708;2023-02-21T04:04:35;95889.72;;;3.08;97.32
1832;BME280;1680;48.106;11.708;2023-02-21T04:07:02;95889.53;;;3.10;97.38
1832;BME280;1680;48.106;11.708;2023-02-21T04:09:29;95889.91;;;3.07;97.30
1832;BME280;1680;48.106;11.708;2023-02-21T04:11:58;95866.66;;;2.83;96.62
1832;BME280;1680;48.106;11.708;2023-02-21T04:14:25;95876.38;;;2.89;97.70
1832;BME280;1680;48.106;11.708;2023-02-21T04:16:52;95880.53;;;2.98;98.25
1832;BME280;1680;48.106;11.708;2023-02-21T04:19:20;95888.63;;;2.95;98.56
1832;BME280;1680;48.106;11.708;2023-02-21T04:21:47;95885.69;;;3.06;98.27
1832;BME280;1680;48.106;11.708;2023-02-21T04:24:15;95889.25;;;3.05;98.48
1832;BME280;1680;48.106;11.708;2023-02-21T04:26:42;95892.81;;;3.04;98.52
1832;BME280;1680;48.106;11.708;2023-02-21T04:29:11;95875.22;;;2.91;98.21
1832;BME280;1680;48.106;11.708;2023-02-21T04:31:38;95867.44;;;2.91;98.79
1832;BME280;1680;48.106;11.708;2023-02-21T04:34:05;95888.94;;;3.00;99.79
1832;BME280;1680;48.106;11.708;2023-02-21T04:36:33;95885.56;;;2.99;99.66
1832;BME280;1680;48.106;11.708;2023-02-21T04:39:02;95888.75;;;3.01;99.39
1832;BME280;1680;48.106;11.708;2023-02-21T04:41:29;95879.22;;;3.02;99.14
1832;BME280;1680;48.106;11.708;2023-02-21T04:43:56;95871.00;;;2.98;99.14
1832;BME280;1680;48.106;11.708;2023-02-21T04:46:25;95877.59;;;3.01;99.46
1832;BME280;1680;48.106;11.708;2023-02-21T04:48:52;95873.41;;;3.00;99.29
1832;BME280;1680;48.106;11.708;2023-02-21T04:51:22;95866.22;;;3.10;99.79
1832;BME280;1680;48.106;11.708;2023-02-21T04:53:50;95840.69;;;2.99;99.16
1832;BME280;1680;48.106;11.708;2023-02-21T04:56:19;95825.81;;;2.93;99.40
1832;BME280;1680;48.106;11.708;2023-02-21T04:58:46;95868.41;;;3.29;99.75
1832;BME280;1680;48.106;11.708;2023-02-21T05:01:14;95856.09;;;3.31;99.85
1832;BME280;1680;48.106;11.708;2023-02-21T05:03:44;95862.25;;;3.30;99.18
1832;BME280;1680;48.106;11.708;2023-02-21T05:06:16;95855.75;;;3.34;98.87
1832;BME280;1680;48.106;11.708;2023-02-21T05:08:43;95855.06;;;3.40;99.25
1832;BME280;1680;48.106;11.708;2023-02-21T05:11:11;95852.78;;;3.45;98.36
1832;BME280;1680;48.106;11.708;2023-02-21T05:13:38;95852.44;;;3.48;97.50
1832;BME280;1680;48.106;11.708;2023-02-21T05:16:05;95849.78;;;3.56;98.27
1832;BME280;1680;48.106;11.708;2023-02-21T05:18:33;95843.59;;;3.65;96.98
1832;BME280;1680;48.106;11.708;2023-02-21T05:21:04;95847.78;;;3.66;97.20
1832;BME280;1680;48.106;11.708;2023-02-21T05:23:32;95847.16;;;3.64;96.46
1832;BME280;1680;48.106;11.708;2023-02-21T05:26:00;95838.16;;;3.74;96.65
1832;BME280;1680;48.106;11.708;2023-02-21T05:28:28;95846.97;;;3.87;95.33
1832;BME280;1680;48.106;11.708;2023-02-21T05:30:56;95832.50;;;3.93;94.71
1832;BME280;1680;48.106;11.708;2023-02-21T05:33:23;95823.69;;;3.80;94.72
1832;BME280;1680;48.106;11.708;2023-02-21T05:35:50;95835.28;;;3.91;94.74
1832;BME280;1680;48.106;11.708;2023-02-21T05:38:21;95844.13;;;3.97;93.84
1832;BME280;1680;48.106;11.708;2023-02-21T05:40:48;95841.44;;;3.90;93.82
1832;BME280;1680;48.106;11.708;2023-02-21T05:43:16;95849.84;;;3.92;94.27
1832;BME280;1680;48.106;11.708;2023-02-21T05:45:43;95851.19;;;3.88;94.59
1832;BME280;1680;48.106;11.708;2023-02-21T05:48:10;95843.22;;;3.90;94.34
1832;BME280;1680;48.106;11.708;2023-02-21T05:50:38;95846.63;;;3.90;93.69
1832;BME280;1680;48.106;11.708;2023-02-21T05:53:05;95839.38;;;3.86;93.48
1832;BME280;1680;48.106;11.708;2023-02-21T05:55:36;95850.38;;;3.88;93.43
1832;BME280;1680;48.106;11.708;2023-02-21T05:58:03;95845.31;;;3.94;93.31
1832;BME280;1680;48.106;11.708;2023-02-21T06:00:31;95844.13;;;3.97;93.05
1832;BME280;1680;48.106;11.708;2023-02-21T06:02:58;95852.56;;;3.99;92.07
1832;BME280;1680;48.106;11.708;2023-02-21T06:05:25;95842.19;;;3.99;92.45
1832;BME280;1680;48.106;11.708;2023-02-21T06:07:52;95842.19;;;3.99;92.72
1832;BME280;1680;48.106;11.708;2023-02-21T06:10:20;95815.53;;;3.82;92.14
1832;BME280;1680;48.106;11.708;2023-02-21T06:12:49;95845.53;;;4.07;91.27
1832;BME280;1680;48.106;11.708;2023-02-21T06:15:16;95846.31;;;4.08;91.29
1832;BME280;1680;48.106;11.708;2023-02-21T06:17:43;95839.25;;;4.16;93.12
1832;BME280;1680;48.106;11.708;2023-02-21T06:20:13;95835.78;;;4.09;91.81
1832;BME280;1680;48.106;11.708;2023-02-21T06:22:41;95844.13;;;4.19;90.75
1832;BME280;1680;48.106;11.708;2023-02-21T06:25:09;95844.44;;;4.16;90.61
1832;BME280;1680;48.106;11.708;2023-02-21T06:27:36;95851.78;;;4.13;91.11
1832;BME280;1680;48.106;11.708;2023-02-21T06:30:06;95845.44;;;4.15;91.27
1832;BME280;1680;48.106;11.708;2023-02-21T06:32:33;95854.38;;;4.13;91.42
1832;BME280;1680;48.106;11.708;2023-02-21T06:35:01;95854.56;;;4.11;91.31
1832;BME280;1680;48.106;11.708;2023-02-21T06:37:28;95866.84;;;4.17;91.17
1832;BME280;1680;48.106;11.708;2023-02-21T06:39:55;95861.63;;;4.17;90.96
1832;BME280;1680;48.106;11.708;2023-02-21T06:42:22;95868.63;;;4.17;90.80
1832;BME280;1680;48.106;11.708;2023-02-21T06:44:50;95865.22;;;4.16;91.70
1832;BME280;1680;48.106;11.708;2023-02-21T06:47:18;95866.16;;;4.23;90.96
1832;BME280;1680;48.106;11.708;2023-02-21T06:49:45;95874.56;;;4.25;91.40
1832;BME280;1680;48.106;11.708;2023-02-21T06:52:13;95882.81;;;4.29;91.28
1832;BME280;1680;48.106;11.708;2023-02-21T06:54:40;95880.84;;;4.31;91.46
1832;BME280;1680;48.106;11.708;2023-02-21T06:57:07;95873.41;;;4.28;91.76
1832;BME280;1680;48.106;11.708;2023-02-21T06:59:35;95883.88;;;4.34;90.99
1832;BME280;1680;48.106;11.708;2023-02-21T07:02:02;95887.47;;;4.33;91.65
1832;BME280;1680;48.106;11.708;2023-02-21T07:04:31;95878.88;;;4.33;91.84
1832;BME280;1680;48.106;11.708;2023-02-21T07:06:58;95896.19;;;4.40;91.62
1832;BME280;1680;48.106;11.708;2023-02-21T07:09:25;95899.31;;;4.50;91.46
1832;BME280;1680;48.106;11.708;2023-02-21T07:11:52;95894.66;;;4.60;91.64
1832;BME280;1680;48.106;11.708;2023-02-21T07:14:20;95895.41;;;4.69;91.01
1832;BME280;1680;48.106;11.708;2023-02-21T07:16:47;95904.38;;;4.66;91.79
1832;BME280;1680;48.106;11.708;2023-02-21T07:19:15;95898.44;;;4.72;91.37
1832;BME280;1680;48.106;11.708;2023-02-21T07:21:43;95898.66;;;4.85;91.43
1832;BME280;1680;48.106;11.708;2023-02-21T07:24:10;95897.94;;;4.91;91.50
1832;BME280;1680;48.106;11.708;2023-02-21T07:26:39;95893.16;;;4.94;90.91
1832;BME280;1680;48.106;11.708;2023-02-21T07:29:06;95899.56;;;5.06;89.86
1832;BME280;1680;48.106;11.708;2023-02-21T07:31:33;95884.28;;;5.18;89.47
1832;BME280;1680;48.106;11.708;2023-02-21T07:34:01;95884.47;;;5.31;88.44
1832;BME280;1680;48.106;11.708;2023-02-21T07:36:28;95888.22;;;5.43;87.12
1832;BME280;1680;48.106;11.708;2023-02-21T07:38:56;95893.22;;;5.59;86.93
1832;BME280;1680;48.106;11.708;2023-02-21T07:41:24;95896.22;;;5.76;86.07
1832;BME280;1680;48.106;11.708;2023-02-21T07:43:51;95896.41;;;5.89;85.81
1832;BME280;1680;48.106;11.708;2023-02-21T07:46:18;95900.59;;;6.11;83.91
1832;BME280;1680;48.106;11.708;2023-02-21T07:48:45;95903.16;;;6.26;82.61
1832;BME280;1680;48.106;11.708;2023-02-21T07:51:13;95902.44;;;6.38;82.27
1832;BME280;1680;48.106;11.708;2023-02-21T07:53:40;95899.47;;;6.62;81.29
1832;BME280;1680;48.106;11.708;2023-02-21T07:56:09;95896.38;;;6.79;80.08
1832;BME280;1680;48.106;11.708;2023-02-21T07:58:36;95906.53;;;7.02;78.93
1832;BME280;1680;48.106;11.708;2023-02-21T08:01:04;95908.88;;;7.24;76.88
1832;BME280;1680;48.106;11.708;2023-02-21T08:03:31;95912.16;;;7.39;76.07
1832;BME280;1680;48.106;11.708;2023-02-21T08:05:58;95907.00;;;7.52;75.44
1832;BME280;1680;48.106;11.708;2023-02-21T08:08:26;95918.94;;;7.68;74.29
1832;BME280;1680;48.106;11.708;2023-02-21T08:10:53;95910.56;;;7.85;73.06
1832;BME280;1680;48.106;11.708;2023-02-21T08:13:23;95913.03;;;7.99;73.04
1832;BME280;1680;48.106;11.708;2023-02-21T08:15:50;95910.66;;;8.17;72.35
1832;BME280;1680;48.106;11.708;2023-02-21T08:18:19;95915.50;;;8.27;71.90
1832;BME280;1680;48.106;11.708;2023-02-21T08:20:48;95901.06;;;8.57;69.76
1832;BME280;1680;48.106;11.708;2023-02-21T08:23:16;95908.31;;;8.61;69.39
1832;BME280;1680;48.106;11.708;2023-02-21T08:25:44;95913.34;;;8.75;68.28
1832;BME280;1680;48.106;11.708;2023-02-21T08:28:11;95913.13;;;8.77;68.98
1832;BME280;1680;48.106;11.708;2023-02-21T08:30:40;95906.66;;;9.12;67.10
1832;BME280;1680;48.106;11.708;2023-02-21T08:33:08;95907.03;;;9.35;65.76
1832;BME280;1680;48.106;11.708;2023-02-21T08:35:35;95915.47;;;9.43;64.89
1832;BME280;1680;48.106;11.708;2023-02-21T08:38:03;95910.00;;;9.51;64.92
1832;BME280;1680;48.106;11.708;2023-02-21T08:40:30;95906.47;;;9.76;63.68
1832;BME280;1680;48.106;11.708;2023-02-21T08:42:58;95916.09;;;9.82;63.59
1832;BME280;1680;48.106;11.708;2023-02-21T08:45:27;95916.47;;;9.92;63.42
1832;BME280;1680;48.106;11.708;2023-02-21T08:47:57;95913.94;;;10.23;61.61
1832;BME280;1680;48.106;11.708;2023-02-21T08:50:26;95913.06;;;10.29;62.28
1832;BME280;1680;48.106;11.708;2023-02-21T08:52:55;95909.63;;;10.35;61.22
1832;BME280;1680;48.106;11.708;2023-02-21T08:55:22;95915.38;;;10.50;60.18
1832;BME280;1680;48.106;11.708;2023-02-21T08:57:52;95863.63;;;10.08;60.65
1832;BME280;1680;48.106;11.708;2023-02-21T09:00:23;95915.38;;;10.50;61.62
1832;BME280;1680;48.106;11.708;2023-02-21T09:02:53;95907.09;;;10.53;61.21
1832;BME280;1680;48.106;11.708;2023-02-21T09:05:23;95919.22;;;10.72;61.37
1832;BME280;1680;48.106;11.708;2023-02-21T09:07:52;95922.53;;;10.61;61.72
1832;BME280;1680;48.106;11.708;2023-02-21T09:10:24;95915.88;;;10.65;60.57
1832;BME280;1680;48.106;11.708;2023-02-21T09:12:51;95924.94;;;10.93;60.02
1832;BME280;1680;48.106;11.708;2023-02-21T09:15:19;95918.31;;;10.84;60.85
1832;BME280;1680;48.106;11.708;2023-02-21T09:17:46;95919.34;;;11.08;59.44
1832;BME280;1680;48.106;11.708;2023-02-21T09:20:19;95913.75;;;11.22;59.87
1832;BME280;1680;48.106;11.708;2023-02-21T09:22:48;95917.59;;;11.20;59.39
1832;BME280;1680;48.106;11.708;2023-02-21T09:25:19;95911.88;;;11.29;58.93
1832;BME280;1680;48.106;11.708;2023-02-21T09:27:49;95913.97;;;11.21;58.92
1832;BME280;1680;48.106;11.708;2023-02-21T09:30:17;95907.53;;;10.99;59.31
1832;BME280;1680;48.106;11.708;2023-02-21T09:32:46;95907.44;;;11.30;59.02
1832;BME280;1680;48.106;11.708;2023-02-21T09:35:14;95895.16;;;11.24;59.31
1832;BME280;1680;48.106;11.708;2023-02-21T09:37:44;95919.50;;;11.55;58.49
1832;BME280;1680;48.106;11.708;2023-02-21T09:40:19;95906.28;;;11.61;58.37
1832;BME280;1680;48.106;11.708;2023-02-21T09:42:49;95909.84;;;11.85;57.96
1832;BME280;1680;48.106;11.708;2023-02-21T09:45:17;95907.00;;;12.04;56.72
1832;BME280;1680;48.106;11.708;2023-02-21T09:47:48;95906.44;;;11.84;56.15
1832;BME280;1680;48.106;11.708;2023-02-21T09:50:19;95893.63;;;12.06;55.89
1832;BME280;1680;48.106;11.708;2023-02-21T09:52:55;95899.81;;;12.11;54.66
1832;BME280;1680;48.106;11.708;2023-02-21T09:55:27;95911.66;;;12.20;54.90
1832;BME280;1680;48.106;11.708;2023-02-21T09:57:55;95903.00;;;12.31;52.34
1832;BME280;1680;48.106;11.708;2023-02-21T10:00:26;95893.59;;;12.24;53.61
1832;BME280;1680;48.106;11.708;2023-02-21T10:03:01;95909.56;;;12.22;52.69
1832;BME280;1680;48.106;11.708;2023-02-21T10:05:38;95902.06;;;12.37;52.16
1832;BME280;1680;48.106;11.708;2023-02-21T10:08:16;95898.41;;;12.27;52.92
1832;BME280;1680;48.106;11.708;2023-02-21T10:10:48;95902.69;;;12.51;51.28
1832;BME280;1680;48.106;11.708;2023-02-21T10:13:30;95910.63;;;12.62;51.65
1832;BME280;1680;48.106;11.708;2023-02-21T10:16:02;95899.19;;;12.68;51.01
1832;BME280;1680;48.106;11.708;2023-02-21T10:18:36;95893.91;;;12.68;51.12
1832;BME280;1680;48.106;11.708;2023-02-21T10:21:11;95898.06;;;12.64;51.95
1832;BME280;1680;48.106;11.708;2023-02-21T10:23:44;95907.34;;;12.78;51.35
1832;BME280;1680;48.106;11.708;2023-02-21T10:26:19;95907.28;;;12.96;50.40
1832;BME280;1680;48.106;11.708;2023-02-21T10:28:49;95904.09;;;12.94;50.74
1832;BME280;1680;48.106;11.708;2023-02-21T10:31:22;95906.13;;;12.92;50.69
1832;BME280;1680;48.106;11.708;2023-02-21T10:33:51;95914.31;;;12.84;50.70
1832;BME280;1680;48.106;11.708;2023-02-21T10:36:21;95909.69;;;12.97;50.15
1832;BME280;1680;48.106;11.708;2023-02-21T10:38:53;95916.78;;;13.08;50.29
1832;BME280;1680;48.106;11.708;2023-02-21T10:41:26;95913.47;;;13.13;49.71
1832;BME280;1680;48.106;11.708;2023-02-21T10:43:59;95897.22;;;13.16;49.78
1832;BME280;1680;48.106;11.708;2023-02-21T10:46:30;95901.69;;;13.04;49.03
1832;BME280;1680;48.106;11.708;2023-02-21T10:49:16;95904.88;;;13.06;49.53
1832;BME280;1680;48.106;11.708;2023-02-21T10:51:46;95898.38;;;13.20;49.92
1832;BME280;1680;48.106;11.708;2023-02-21T10:54:19;95897.47;;;13.26;49.94
1832;BME280;1680;48.106;11.708;2023-02-21T10:56:48;95894.34;;;13.40;48.97
1832;BME280;1680;48.106;11.708;2023-02-21T10:59:21;95885.97;;;13.43;48.60
1832;BME280;1680;48.106;11.708;2023-02-21T11:01:49;95890.31;;;13.49;48.84
1832;BME280;1680;48.106;11.708;2023-02-21T11:04:24;95885.06;;;13.38;49.06
1832;BME280;1680;48.106;11.708;2023-02-21T11:06:54;95876.47;;;13.31;49.53
1832;BME280;1680;48.106;11.708;2023-02-21T11:09:43;95878.84;;;13.66;48.26
1832;BME280;1680;48.106;11.708;2023-02-21T11:12:21;95872.63;;;13.72;48.23
1832;BME280;1680;48.106;11.708;2023-02-21T11:15:14;95873.50;;;13.89;47.95
1832;BME280;1680;48.106;11.708;2023-02-21T11:17:42;95867.31;;;13.84;47.56
1832;BME280;1680;48.106;11.708;2023-02-21T11:20:18;95865.97;;;13.81;48.11
1832;BME280;1680;48.106;11.708;2023-02-21T11:22:48;95861.63;;;13.75;49.04
1832;BME280;1680;48.106;11.708;2023-02-21T11:25:22;95859.97;;;13.97;47.78
1832;BME280;1680;48.106;11.708;2023-02-21T11:28:18;95859.59;;;13.94;48.78
1832;BME280;1680;48.106;11.708;2023-02-21T11:30:49;95848.09;;;13.83;47.42
1832;BME280;1680;48.106;11.708;2023-02-21T11:33:19;95832.44;;;13.93;48.33
1832;BME280;1680;48.106;11.708;2023-02-21T11:35:48;95822.06;;;14.03;47.70
1832;BME280;1680;48.106;11.708;2023-02-21T11:38:38;95837.38;;;14.29;46.93
1832;BME280;1680;48.106;11.708;2023-02-21T11:41:16;95833.28;;;14.10;47.06
1832;BME280;1680;48.106;11.708;2023-02-21T11:43:49;95832.47;;;14.21;47.06
1832;BME280;1680;48.106;11.708;2023-02-21T11:46:20;95828.91;;;14.44;47.07
1832;BME280;1680;48.106;11.708;2023-02-21T11:48:58;95800.44;;;14.29;46.15
1832;BME280;1680;48.106;11.708;2023-02-21T11:51:33;95820.09;;;14.54;46.19
1832;BME280;1680;48.106;11.708;2023-02-21T11:54:04;95821.59;;;14.34;46.99
1832;BME280;1680;48.106;11.708;2023-02-21T11:56:48;95816.44;;;14.39;46.73
1832;BME280;1680;48.106;11.708;2023-02-21T11:59:36;95803.63;;;14.48;46.77
1832;BME280;1680;48.106;11.708;2023-02-21T12:02:44;95796.94;;;14.73;46.29
1832;BME280;1680;48.106;11.708;2023-02-21T12:05:24;95793.22;;;14.90;45.59
1832;BME280;1680;48.106;11.708;2023-02-21T12:08:04;95792.81;;;14.82;45.76
1832;BME280;1680;48.106;11.708;2023-02-21T12:10:44;95748.16;;;14.59;45.21
1832;BME280;1680;48.106;11.708;2023-02-21T12:13:24;95783.31;;;14.81;45.71
1832;BME280;1680;48.106;11.708;2023-02-21T12:16:02;95780.34;;;14.77;45.24
1832;BME280;1680;48.106;11.708;2023-02-21T12:18:45;95771.78;;;14.87;45.83
1832;BME280;1680;48.106;11.708;2023-02-21T12:21:36;95779.28;;;14.95;46.05
1832;BME280;1680;48.106;11.708;2023-02-21T12:24:20;95770.66;;;14.83;46.30
1832;BME280;1680;48.106;11.708;2023-02-21T12:26:54;95765.16;;;14.68;46.29
1832;BME280;1680;48.106;11.708;2023-02-21T12:29:38;95766.03;;;14.73;46.48
1832;BME280;1680;48.106;11.708;2023-02-21T12:32:30;95752.94;;;15.00;45.79
1832;BME280;1680;48.106;11.708;2023-02-21T12:38:07;95748.16;;;14.97;46.31
1832;BME280;1680;48.106;11.708;2023-02-21T12:40:40;95727.44;;;14.89;47.62
1832;BME280;1680;48.106;11.708;2023-02-21T12:43:23;95702.22;;;14.60;46.49
1832;BME280;1680;48.106;11.708;2023-02-21T12:45:58;95747.75;;;15.05;46.45
1832;BME280;1680;48.106;11.708;2023-02-21T12:48:33;95740.31;;;15.02;47.11
1832;BME280;1680;48.106;11.708;2023-02-21T12:51:07;95729.19;;;15.00;45.67
1832;BME280;1680;48.106;11.708;2023-02-21T12:53:40;95728.78;;;15.29;45.86
1832;BME280;1680;48.106;11.708;2023-02-21T12:56:12;95723.31;;;15.36;46.25
1832;BME280;1680;48.106;11.708;2023-02-21T12:58:44;95727.06;;;15.40;46.08
1832;BME280;1680;48.106;11.708;2023-02-21T13:01:16;95716.97;;;15.37;46.27
1832;BME280;1680;48.106;11.708;2023-02-21T13:04:05;95715.56;;;15.51;45.74
1832;BME280;1680;48.106;11.708;2023-02-21T13:06:45;95719.13;;;15.40;46.14
1832;BME280;1680;48.106;11.708;2023-02-21T13:09:20;95719.28;;;15.54;45.71
1832;BME280;1680;48.106;11.708;2023-02-21T13:11:57;95711.00;;;15.46;46.38
1832;BME280;1680;48.106;11.708;2023-02-21T13:14:30;95700.94;;;15.43;46.29
1832;BME280;1680;48.106;11.708;2023-02-21T13:16:58;95713.44;;;15.52;46.04
1832;BME280;1680;48.106;11.708;2023-02-21T13:19:33;95696.91;;;15.36;46.29
1832;BME280;1680;48.106;11.708;2023-02-21T13:25:35;95688.53;;;15.44;46.66
1832;BME280;1680;48.106;11.708;2023-02-21T13:28:09;95679.84;;;15.48;46.94
1832;BME280;1680;48.106;11.708;2023-02-21T13:30:41;95676.47;;;15.31;47.02
1832;BME280;1680;48.106;11.708;2023-02-21T13:33:23;95671.63;;;15.23;47.13
1832;BME280;1680;48.106;11.708;2023-02-21T13:35:52;95670.81;;;15.23;47.94
1832;BME280;1680;48.106;11.708;2023-02-21T13:38:22;95650.47;;;15.23;47.29
1832;BME280;1680;48.106;11.708;2023-02-21T13:40:53;95663.19;;;15.48;47.37
1832;BME280;1680;48.106;11.708;2023-02-21T13:43:30;95661.19;;;15.59;47.05
1832;BME280;1680;48.106;11.708;2023-02-21T13:46:23;95658.25;;;15.30;48.15
1832;BME280;1680;48.106;11.708;2023-02-21T13:51:53;95650.47;;;15.45;46.25
1832;BME280;1680;48.106;11.708;2023-02-21T13:57:42;95641.06;;;15.32;46.78
1832;BME280;1680;48.106;11.708;2023-02-21T14:00:46;95641.44;;;15.19;47.03
1832;BME280;1680;48.106;11.708;2023-02-21T14:03:29;95640.13;;;15.22;46.72
1832;BME280;1680;48.106;11.708;2023-02-21T14:06:23;95635.03;;;15.15;47.71
1832;BME280;1680;48.106;11.708;2023-02-21T14:08:57;95632.84;;;15.29;47.35